Time;durP1;ratioP1;P1;durP2;ratioP2;P2;SDS_P1;SDS_P2;PMS_P1;PMS_P2;Temp;Humidity;BMP_temperature;BMP_pressure;BME280_temperature;BME280_humidity;BME280_pressure;Samples;Min_cycle;Max_cycle;Signal;HPM_P1;HPM_P2
2022/11/05 00:09:55;;;;;;;14.97;8.93;;;6.50;99.90;;;;;;5090348;28;20277;-83
2022/11/05 00:17:51;;;;;;;15.27;8.93;;;6.60;99.90;;;;;;5090336;28;20192;-84
2022/11/05 00:20:18;;;;;;;17.03;9.27;;;6.60;99.90;;;;;;5090875;28;20352;-82
2022/11/05 00:25:31;;;;;;;15.50;9.47;;;6.60;99.90;;;;;;5091305;28;20278;-83
2022/11/05 00:28:01;;;;;;;14.17;8.27;;;6.60;99.90;;;;;;5090549;28;20215;-83
2022/11/05 00:30:29;;;;;;;15.37;8.93;;;6.40;99.90;;;;;;5090994;28;20219;-82
2022/11/05 00:33:02;;;;;;;14.77;8.43;;;6.50;99.90;;;;;;5090471;28;20182;-83
2022/11/05 00:35:29;;;;;;;16.07;8.30;;;6.50;99.90;;;;;;5089623;28;20187;-83
2022/11/05 00:37:57;;;;;;;15.30;8.43;;;6.50;99.90;;;;;;5091224;28;20201;-83
2022/11/05 00:40:24;;;;;;;13.20;7.77;;;6.50;99.90;;;;;;5091166;28;20250;-83
2022/11/05 00:45:36;;;;;;;16.67;9.63;;;6.40;99.90;;;;;;5089947;28;20209;-83
2022/11/05 00:50:47;;;;;;;14.73;7.73;;;6.40;99.90;;;;;;5090862;28;20266;-82
2022/11/05 00:53:16;;;;;;;15.00;7.77;;;6.30;99.90;;;;;;5090912;28;20229;-83
2022/11/05 00:55:44;;;;;;;14.70;7.67;;;6.30;99.90;;;;;;5089839;28;20267;-83
2022/11/05 00:58:13;;;;;;;16.10;8.57;;;6.50;99.90;;;;;;5089489;28;20210;-82
2022/11/05 01:00:41;;;;;;;15.60;8.13;;;6.30;99.90;;;;;;5090002;28;20331;-83
2022/11/05 01:03:10;;;;;;;17.80;7.90;;;6.40;99.90;;;;;;5091057;28;20229;-82
2022/11/05 01:05:41;;;;;;;12.17;7.73;;;6.30;99.90;;;;;;5090519;28;20202;-83
2022/11/05 01:08:08;;;;;;;14.50;7.90;;;6.20;99.90;;;;;;5090575;28;20248;-83
2022/11/05 01:10:40;;;;;;;14.43;8.00;;;6.30;99.90;;;;;;5088981;28;20285;-83
2022/11/05 01:13:07;;;;;;;12.37;7.43;;;6.20;99.90;;;;;;5090789;28;20251;-83
2022/11/05 01:15:36;;;;;;;13.90;7.87;;;6.10;99.90;;;;;;5090671;28;20214;-83
2022/11/05 01:18:03;;;;;;;12.13;6.90;;;6.30;99.90;;;;;;5090200;28;20214;-83
2022/11/05 01:20:30;;;;;;;12.10;7.07;;;6.20;99.90;;;;;;5089744;28;20222;-83
2022/11/05 01:22:58;;;;;;;14.57;8.07;;;6.30;99.90;;;;;;5090412;28;20199;-83
2022/11/05 01:25:25;;;;;;;15.63;7.23;;;6.30;99.90;;;;;;5090103;28;20233;-83
2022/11/05 01:27:53;;;;;;;13.00;7.53;;;6.20;99.90;;;;;;5088929;28;20217;-83
2022/11/05 01:30:21;;;;;;;13.47;7.77;;;6.30;99.90;;;;;;5088756;28;20238;-83
2022/11/05 01:32:48;;;;;;;17.93;8.43;;;6.20;99.90;;;;;;5089240;28;20207;-83
2022/11/05 01:35:17;;;;;;;13.97;7.73;;;6.30;99.90;;;;;;5088961;28;20211;-83
2022/11/05 01:37:44;;;;;;;16.97;7.77;;;6.20;99.90;;;;;;5089888;28;20228;-83
2022/11/05 01:40:14;;;;;;;14.33;7.90;;;6.10;99.90;;;;;;5089276;28;20229;-83
2022/11/05 01:42:42;;;;;;;11.63;7.33;;;6.20;99.90;;;;;;5089336;28;20198;-83
2022/11/05 01:45:16;;;;;;;16.00;8.30;;;6.10;99.90;;;;;;5089891;28;20244;-83
2022/11/05 01:48:00;;;;;;;16.00;8.53;;;6.10;99.90;;;;;;5089167;28;20217;-83
2022/11/05 01:50:47;;;;;;;13.07;7.47;;;6.10;99.90;;;;;;5087345;28;20237;-83
2022/11/05 01:53:19;;;;;;;15.00;7.90;;;6.10;99.90;;;;;;5089719;28;20186;-83
2022/11/05 01:55:51;;;;;;;13.80;7.83;;;6.10;99.90;;;;;;5089136;28;20183;-83
2022/11/05 01:58:22;;;;;;;18.77;9.00;;;6.20;99.90;;;;;;5088496;28;20217;-83
2022/11/05 02:00:51;;;;;;;15.80;7.30;;;6.20;99.90;;;;;;5088682;28;20245;-83
2022/11/05 02:03:19;;;;;;;15.20;8.40;;;6.10;99.90;;;;;;5088847;28;20209;-83
2022/11/05 02:05:48;;;;;;;17.33;8.53;;;6.10;99.90;;;;;;5089097;28;20226;-83
2022/11/05 02:08:22;;;;;;;14.70;7.63;;;6.20;99.90;;;;;;5089487;28;20195;-83
2022/11/05 02:10:50;;;;;;;14.20;8.17;;;6.20;99.90;;;;;;5088038;28;20244;-83
2022/11/05 02:13:17;;;;;;;15.57;8.33;;;6.00;99.90;;;;;;5088023;28;20210;-83
2022/11/05 02:15:56;;;;;;;17.70;9.50;;;6.10;99.90;;;;;;5088888;28;20206;-83
2022/11/05 02:18:36;;;;;;;16.03;8.70;;;6.10;99.90;;;;;;5088577;28;20571;-83
2022/11/05 02:21:33;;;;;;;15.27;9.10;;;6.10;99.90;;;;;;5088839;28;20225;-83
2022/11/05 02:24:24;;;;;;;17.50;8.97;;;6.00;99.90;;;;;;5089222;28;20246;-83
2022/11/05 02:27:09;;;;;;;14.83;8.50;;;6.00;99.90;;;;;;5085856;28;20297;-83
2022/11/05 02:30:11;;;;;;;18.17;9.07;;;5.90;99.90;;;;;;5088070;28;20218;-83
2022/11/05 02:33:06;;;;;;;17.60;8.87;;;5.80;99.90;;;;;;5089267;28;20226;-83
2022/11/05 02:35:59;;;;;;;16.73;9.20;;;5.90;99.90;;;;;;5089020;28;20240;-83
2022/11/05 02:38:37;;;;;;;20.37;9.20;;;5.80;99.90;;;;;;5088552;28;20440;-83
2022/11/05 02:41:10;;;;;;;15.97;8.03;;;5.90;99.90;;;;;;5088859;28;20252;-83
2022/11/05 02:43:48;;;;;;;16.60;8.83;;;5.80;99.90;;;;;;5089772;28;20234;-83
2022/11/05 02:46:30;;;;;;;16.13;8.57;;;5.80;99.90;;;;;;5089326;28;20498;-83
2022/11/05 02:49:08;;;;;;;15.47;9.80;;;5.70;99.90;;;;;;5088017;28;20209;-83
2022/11/05 02:51:41;;;;;;;15.83;8.40;;;5.60;99.90;;;;;;5088979;28;20206;-83
2022/11/05 02:54:17;;;;;;;17.83;9.50;;;5.50;99.90;;;;;;5089017;28;20206;-83
2022/11/05 02:56:48;;;;;;;18.17;10.13;;;5.70;99.90;;;;;;5087828;28;20182;-84
2022/11/05 02:59:15;;;;;;;15.87;8.90;;;5.80;99.90;;;;;;5087741;28;20187;-83
2022/11/05 03:01:44;;;;;;;16.60;8.90;;;5.70;99.90;;;;;;5088261;28;20203;-83
2022/11/05 03:04:15;;;;;;;19.33;9.70;;;5.80;99.90;;;;;;5087281;28;20226;-83
2022/11/05 03:06:59;;;;;;;18.27;9.87;;;5.80;99.90;;;;;;5088024;28;20377;-83
2022/11/05 03:09:55;;;;;;;18.57;9.50;;;5.90;99.90;;;;;;5086572;28;20241;-83
2022/11/05 03:12:31;;;;;;;19.77;10.77;;;5.80;99.90;;;;;;5087978;28;20241;-83
2022/11/05 03:15:08;;;;;;;19.57;10.90;;;5.90;99.90;;;;;;5090760;28;20214;-83
2022/11/05 03:17:41;;;;;;;19.67;9.80;;;5.90;99.90;;;;;;5090786;28;20234;-83
2022/11/05 03:20:17;;;;;;;21.37;9.93;;;5.70;99.90;;;;;;5090896;28;20265;-82
2022/11/05 03:22:49;;;;;;;19.03;10.53;;;5.90;99.90;;;;;;5091676;28;20220;-83
2022/11/05 03:25:20;;;;;;;19.30;10.17;;;5.80;99.90;;;;;;5091272;28;20305;-83
2022/11/05 03:27:54;;;;;;;17.97;10.40;;;5.80;99.90;;;;;;5091129;28;20221;-83
2022/11/05 03:30:21;;;;;;;19.57;10.43;;;5.90;99.90;;;;;;5089698;28;20249;-82
2022/11/05 03:32:53;;;;;;;16.53;9.60;;;6.00;99.90;;;;;;5088736;28;20217;-83
2022/11/05 03:35:24;;;;;;;20.13;9.83;;;6.00;99.90;;;;;;5090277;28;20216;-83
2022/11/05 03:37:57;;;;;;;17.83;10.17;;;5.90;99.90;;;;;;5091141;28;20206;-83
2022/11/05 03:40:26;;;;;;;18.73;10.43;;;5.90;99.90;;;;;;5090955;28;20250;-83
2022/11/05 03:42:57;;;;;;;19.37;10.50;;;5.80;99.90;;;;;;5090824;28;20225;-83
2022/11/05 03:45:29;;;;;;;20.07;11.00;;;5.70;99.90;;;;;;5090764;28;20218;-84
2022/11/05 03:47:58;;;;;;;17.87;9.57;;;5.80;99.90;;;;;;5090550;28;20218;-83
2022/11/05 03:50:33;;;;;;;17.00;9.40;;;5.70;99.90;;;;;;5089576;28;20230;-83
2022/11/05 03:53:04;;;;;;;17.10;9.60;;;5.70;99.90;;;;;;5089865;28;20190;-83
2022/11/05 03:55:36;;;;;;;19.80;9.97;;;5.80;99.90;;;;;;5091774;28;20246;-83
2022/11/05 03:58:05;;;;;;;20.33;10.50;;;5.50;99.90;;;;;;5091365;28;20222;-83
2022/11/05 04:00:32;;;;;;;18.77;10.00;;;5.60;99.90;;;;;;5091754;28;20218;-82
2022/11/05 04:02:59;;;;;;;18.73;10.07;;;5.50;99.90;;;;;;5089570;28;20206;-83
2022/11/05 04:05:28;;;;;;;19.60;9.47;;;5.50;99.90;;;;;;5089720;28;20222;-83
2022/11/05 04:13:26;;;;;;;19.07;10.43;;;5.50;99.90;;;;;;5065024;28;20190;-83
2022/11/05 04:18:39;;;;;;;20.03;9.67;;;5.50;99.90;;;;;;5091170;28;20185;-83
2022/11/05 04:24:08;;;;;;;17.63;9.70;;;5.50;99.90;;;;;;5090697;28;20240;-84
2022/11/05 04:26:35;;;;;;;22.53;9.90;;;5.30;99.90;;;;;;5090477;28;20187;-83
2022/11/05 04:31:46;;;;;;;19.33;9.70;;;5.30;99.90;;;;;;5090405;28;20189;-83
2022/11/05 04:34:15;;;;;;;17.90;9.50;;;5.30;99.90;;;;;;5090038;28;20206;-83
2022/11/05 04:36:43;;;;;;;19.93;9.93;;;5.50;99.90;;;;;;5090312;28;20244;-83
2022/11/05 04:39:10;;;;;;;19.03;9.13;;;5.30;99.90;;;;;;5090263;28;20268;-83
2022/11/05 04:41:37;;;;;;;20.20;10.13;;;5.40;99.90;;;;;;5090947;28;20232;-83
2022/11/05 04:44:04;;;;;;;17.57;9.47;;;5.20;99.90;;;;;;5089688;28;20202;-83
2022/11/05 04:46:31;;;;;;;17.60;10.33;;;5.20;99.90;;;;;;5090687;28;20234;-83
2022/11/05 04:48:58;;;;;;;17.30;9.47;;;5.20;99.90;;;;;;5089647;28;20236;-83
2022/11/05 04:51:26;;;;;;;16.33;8.93;;;5.20;99.90;;;;;;5090078;28;20291;-83
2022/11/05 04:53:54;;;;;;;18.17;10.03;;;5.20;99.90;;;;;;5090312;28;20264;-83
2022/11/05 04:56:23;;;;;;;20.43;9.60;;;5.10;99.90;;;;;;5090282;28;20202;-83
2022/11/05 04:58:50;;;;;;;18.20;9.43;;;5.10;99.90;;;;;;5089955;28;20237;-83
2022/11/05 05:01:19;;;;;;;20.37;10.17;;;4.90;99.90;;;;;;5089674;28;20230;-83
2022/11/05 05:03:47;;;;;;;17.97;10.10;;;5.10;99.90;;;;;;5089579;28;20210;-83
2022/11/05 05:06:14;;;;;;;18.97;9.83;;;5.10;99.90;;;;;;5090008;28;20258;-83
2022/11/05 05:08:42;;;;;;;19.10;10.37;;;5.00;99.90;;;;;;5090072;28;20206;-84
2022/11/05 05:11:12;;;;;;;18.87;10.30;;;5.00;99.90;;;;;;5089667;28;20316;-83
2022/11/05 05:13:39;;;;;;;18.60;10.40;;;5.00;99.90;;;;;;5089637;28;20217;-83
2022/11/05 05:16:06;;;;;;;20.43;10.50;;;5.00;99.90;;;;;;5090175;28;20254;-83
2022/11/05 05:18:33;;;;;;;18.83;10.13;;;5.20;99.90;;;;;;5089726;28;20218;-83
2022/11/05 05:23:46;;;;;;;18.80;11.20;;;5.20;99.90;;;;;;5089329;28;20182;-83
2022/11/05 05:26:14;;;;;;;20.23;10.30;;;5.10;99.90;;;;;;5089046;28;20250;-83
2022/11/05 05:28:41;;;;;;;21.70;10.53;;;5.00;99.90;;;;;;5088586;28;20210;-83
2022/11/05 05:31:08;;;;;;;19.77;10.10;;;5.00;99.90;;;;;;5088845;28;20504;-83
2022/11/05 05:33:35;;;;;;;20.20;9.90;;;5.10;99.90;;;;;;5087856;28;20207;-83
2022/11/05 05:36:02;;;;;;;21.13;10.63;;;5.00;99.90;;;;;;5087108;28;20202;-82
2022/11/05 05:38:29;;;;;;;19.90;10.30;;;5.00;99.90;;;;;;5087881;28;20207;-83
2022/11/05 05:40:59;;;;;;;18.37;9.17;;;5.00;99.90;;;;;;5087636;28;20255;-83
2022/11/05 05:43:30;;;;;;;18.87;9.70;;;5.00;99.90;;;;;;5084079;28;20210;-83
2022/11/05 05:45:57;;;;;;;21.13;10.77;;;5.10;99.90;;;;;;5087499;28;20633;-83
2022/11/05 05:48:24;;;;;;;18.47;9.67;;;5.00;99.90;;;;;;5085509;28;20259;-83
2022/11/05 05:50:51;;;;;;;19.10;9.90;;;4.90;99.90;;;;;;5086718;28;20223;-84
2022/11/05 05:53:18;;;;;;;22.57;9.83;;;5.00;99.90;;;;;;5086266;28;20237;-83
2022/11/05 05:55:45;;;;;;;22.40;12.33;;;4.90;99.90;;;;;;5085853;28;20241;-83
2022/11/05 05:58:12;;;;;;;29.50;17.07;;;4.90;99.90;;;;;;5084732;28;20202;-82
2022/11/05 06:00:40;;;;;;;22.83;11.90;;;4.90;99.90;;;;;;5087361;28;20253;-83
2022/11/05 06:03:07;;;;;;;20.40;10.90;;;4.90;99.90;;;;;;5087413;28;20210;-83
2022/11/05 06:05:34;;;;;;;18.87;10.37;;;4.80;99.90;;;;;;5086996;28;20222;-83
2022/11/05 06:08:00;;;;;;;18.97;10.73;;;4.80;99.90;;;;;;5086865;28;20236;-83
2022/11/05 06:10:27;;;;;;;19.83;10.70;;;4.70;99.90;;;;;;5085834;28;20242;-83
2022/11/05 06:12:54;;;;;;;20.13;11.40;;;4.90;99.90;;;;;;5087954;28;20241;-83
2022/11/05 06:15:21;;;;;;;19.37;10.67;;;5.10;99.90;;;;;;5087058;28;20194;-82
2022/11/05 06:17:50;;;;;;;20.37;10.43;;;5.00;99.90;;;;;;5084825;28;20215;-83
2022/11/05 06:20:17;;;;;;;21.00;11.30;;;4.90;99.90;;;;;;5086188;28;20244;-83
2022/11/05 06:22:44;;;;;;;21.53;11.43;;;4.80;99.90;;;;;;5085918;28;20206;-82
2022/11/05 06:25:11;;;;;;;22.03;11.90;;;4.80;99.90;;;;;;5085320;28;20218;-83
2022/11/05 06:27:38;;;;;;;19.70;10.73;;;4.80;99.90;;;;;;5084145;28;20213;-84
2022/11/05 06:30:06;;;;;;;19.50;11.17;;;4.90;99.90;;;;;;5085401;28;20304;-82
2022/11/05 06:32:32;;;;;;;22.87;11.40;;;4.80;99.90;;;;;;5083482;28;20277;-82
2022/11/05 06:35:00;;;;;;;18.50;10.57;;;4.80;99.90;;;;;;5083750;28;20277;-82
2022/11/05 06:37:27;;;;;;;20.53;11.57;;;4.80;99.90;;;;;;5080992;28;20198;-83
2022/11/05 06:39:55;;;;;;;21.00;11.87;;;4.90;99.90;;;;;;5078261;28;20329;-82
2022/11/05 06:42:23;;;;;;;23.63;12.23;;;4.80;99.90;;;;;;5075440;28;20195;-83
2022/11/05 06:44:50;;;;;;;22.00;12.53;;;4.90;99.90;;;;;;5076016;28;20222;-82
2022/11/05 06:47:17;;;;;;;21.80;13.13;;;5.10;99.90;;;;;;5079965;28;20194;-82
2022/11/05 06:49:44;;;;;;;23.63;12.27;;;5.10;99.90;;;;;;5080835;28;20293;-83
2022/11/05 06:52:14;;;;;;;22.10;11.63;;;5.10;99.90;;;;;;5081710;28;20573;-82
2022/11/05 06:54:42;;;;;;;23.40;12.77;;;5.20;99.90;;;;;;5081464;28;20653;-82
2022/11/05 06:57:10;;;;;;;24.57;12.80;;;5.20;99.90;;;;;;5081031;28;20567;-82
2022/11/05 06:59:38;;;;;;;23.17;14.03;;;5.30;99.90;;;;;;5081375;28;20773;-82
2022/11/05 07:02:05;;;;;;;25.87;13.40;;;5.50;99.90;;;;;;5081950;28;20218;-82
2022/11/05 07:04:32;;;;;;;24.63;13.97;;;5.40;99.90;;;;;;5076728;28;20236;-83
2022/11/05 07:06:59;;;;;;;23.23;12.83;;;5.40;99.90;;;;;;5083930;28;20210;-82
2022/11/05 07:09:28;;;;;;;23.90;12.80;;;5.50;99.90;;;;;;5082451;28;20226;-83
2022/11/05 07:11:55;;;;;;;21.40;12.27;;;5.50;99.90;;;;;;5082490;28;20260;-83
2022/11/05 07:14:22;;;;;;;24.80;13.90;;;5.50;99.90;;;;;;5066273;28;20215;-84
2022/11/05 07:16:49;;;;;;;22.47;12.13;;;5.60;99.90;;;;;;5064651;28;20618;-82
2022/11/05 07:19:16;;;;;;;21.93;12.13;;;5.60;99.90;;;;;;5066652;28;20209;-86
2022/11/05 07:21:43;;;;;;;21.03;12.40;;;5.60;99.90;;;;;;5080111;28;20252;-83
2022/11/05 07:24:09;;;;;;;24.00;12.97;;;5.70;99.90;;;;;;5079845;28;20218;-84
2022/11/05 07:26:38;;;;;;;20.87;12.43;;;5.90;99.90;;;;;;5081378;28;20222;-84
2022/11/05 07:29:04;;;;;;;22.47;12.23;;;6.00;99.90;;;;;;5078379;28;20202;-83
2022/11/05 07:31:31;;;;;;;22.23;12.17;;;6.00;99.90;;;;;;5082521;28;20280;-83
2022/11/05 07:33:58;;;;;;;20.53;11.93;;;6.00;99.90;;;;;;5081487;28;20277;-84
2022/11/05 07:36:25;;;;;;;27.77;17.30;;;6.00;99.90;;;;;;5078464;28;20213;-83
2022/11/05 07:38:52;;;;;;;23.10;12.57;;;6.30;99.90;;;;;;5077844;28;20202;-83
2022/11/05 07:41:19;;;;;;;21.93;11.70;;;6.40;99.90;;;;;;5076375;28;20690;-83
2022/11/05 07:43:47;;;;;;;21.93;12.00;;;6.30;99.90;;;;;;5077016;28;20202;-83
2022/11/05 07:46:14;;;;;;;24.53;12.60;;;6.60;99.90;;;;;;5073814;28;20246;-84
2022/11/05 07:48:41;;;;;;;22.10;11.27;;;6.70;99.90;;;;;;5077653;28;20230;-83
2022/11/05 07:51:08;;;;;;;23.40;11.60;;;6.60;99.90;;;;;;5075900;28;20225;-84
2022/11/05 07:53:34;;;;;;;23.07;12.63;;;6.90;99.90;;;;;;5078493;28;20209;-84
2022/11/05 07:56:01;;;;;;;25.97;11.87;;;6.90;99.90;;;;;;5078830;28;20236;-84
2022/11/05 07:58:28;;;;;;;23.30;12.70;;;6.90;99.90;;;;;;5070045;28;20199;-83
2022/11/05 08:00:57;;;;;;;25.43;13.80;;;7.00;99.90;;;;;;5054978;28;20233;-84
2022/11/05 08:03:23;;;;;;;23.50;11.70;;;7.00;99.90;;;;;;5053649;28;20880;-84
2022/11/05 08:05:50;;;;;;;27.57;13.30;;;7.30;99.90;;;;;;5072936;28;20210;-84
2022/11/05 08:08:19;;;;;;;25.47;12.93;;;7.50;99.90;;;;;;5074544;28;20206;-83
2022/11/05 08:10:46;;;;;;;22.53;11.83;;;7.50;99.90;;;;;;5073820;28;20313;-85
2022/11/05 08:13:14;;;;;;;24.87;11.47;;;7.60;99.90;;;;;;5076590;28;20570;-84
2022/11/05 08:15:42;;;;;;;23.30;12.53;;;7.50;99.90;;;;;;5075019;28;20213;-83
2022/11/05 08:18:13;;;;;;;26.33;12.63;;;7.50;99.90;;;;;;5076628;28;20650;-83
2022/11/05 08:20:41;;;;;;;25.03;13.60;;;7.50;99.90;;;;;;5075159;28;20222;-84
2022/11/05 08:23:08;;;;;;;25.93;12.63;;;7.50;99.90;;;;;;5060573;28;20199;-82
2022/11/05 08:25:35;;;;;;;23.07;11.97;;;7.60;99.90;;;;;;5073957;28;20286;-84
2022/11/05 08:28:05;;;;;;;23.40;11.87;;;7.60;99.90;;;;;;5063542;28;20202;-82
2022/11/05 08:30:32;;;;;;;26.27;13.20;;;7.80;99.90;;;;;;5070014;28;20752;-83
2022/11/05 08:33:01;;;;;;;23.40;11.43;;;7.90;99.90;;;;;;5059155;28;20293;-83
2022/11/05 08:35:30;;;;;;;25.17;12.73;;;8.00;99.90;;;;;;5056565;28;20203;-83
2022/11/05 08:37:58;;;;;;;23.37;11.40;;;8.20;99.90;;;;;;5058137;28;20211;-84
2022/11/05 08:40:25;;;;;;;21.10;9.87;;;8.40;99.90;;;;;;5059920;28;20231;-83
2022/11/05 08:42:52;;;;;;;21.87;11.07;;;8.60;99.90;;;;;;5058908;28;20241;-83
2022/11/05 08:45:19;;;;;;;23.50;10.60;;;8.50;99.90;;;;;;5061520;28;20218;-83
2022/11/05 08:47:45;;;;;;;24.27;11.77;;;8.40;99.90;;;;;;5061078;28;20207;-83
2022/11/05 08:50:12;;;;;;;21.80;11.07;;;8.30;99.90;;;;;;5060544;28;20229;-83
2022/11/05 08:52:41;;;;;;;24.60;11.53;;;8.40;99.90;;;;;;5060187;28;20242;-83
2022/11/05 08:55:09;;;;;;;21.30;10.53;;;8.40;99.90;;;;;;5060635;28;20210;-83
2022/11/05 08:57:36;;;;;;;23.93;12.13;;;8.70;99.90;;;;;;5059611;28;20203;-83
2022/11/05 09:00:03;;;;;;;23.43;10.83;;;9.00;99.90;;;;;;5059665;28;20253;-84
2022/11/05 09:02:30;;;;;;;22.30;11.47;;;8.80;99.90;;;;;;5061404;28;20213;-83
2022/11/05 09:04:57;;;;;;;24.87;10.90;;;8.60;99.90;;;;;;5059283;28;20656;-84
2022/11/05 09:07:24;;;;;;;20.90;10.57;;;8.60;99.90;;;;;;5058517;28;20226;-84
2022/11/05 09:09:52;;;;;;;22.50;11.00;;;8.50;99.90;;;;;;5058871;28;20227;-83
2022/11/05 09:12:18;;;;;;;24.60;10.53;;;8.50;99.90;;;;;;5059586;28;20225;-83
2022/11/05 09:14:45;;;;;;;23.77;11.70;;;8.70;99.90;;;;;;5060282;28;20229;-84
2022/11/05 09:17:16;;;;;;;23.63;10.90;;;8.90;99.90;;;;;;5057349;28;20209;-83
2022/11/05 09:19:43;;;;;;;24.27;11.97;;;9.10;99.90;;;;;;5056109;28;20226;-83
2022/11/05 09:22:11;;;;;;;22.50;9.67;;;9.40;99.90;;;;;;5057773;28;20567;-83
2022/11/05 09:24:38;;;;;;;19.07;9.23;;;9.60;99.90;;;;;;5057830;28;20203;-84
2022/11/05 09:27:09;;;;;;;17.73;9.43;;;9.70;99.90;;;;;;5058051;28;20230;-84
2022/11/05 09:29:35;;;;;;;21.03;9.97;;;9.90;99.90;;;;;;5056757;28;20219;-83
2022/11/05 09:32:03;;;;;;;24.53;11.00;;;10.10;99.90;;;;;;5055957;28;20663;-84
2022/11/05 09:34:29;;;;;;;18.17;8.87;;;10.40;99.90;;;;;;5057134;28;20211;-84
2022/11/05 09:36:57;;;;;;;15.50;8.37;;;10.10;99.90;;;;;;5056176;28;20231;-84
2022/11/05 09:39:24;;;;;;;19.43;8.20;;;10.00;99.90;;;;;;5056581;28;20209;-84
2022/11/05 09:41:53;;;;;;;17.10;8.13;;;9.70;99.90;;;;;;5057391;28;20207;-83
2022/11/05 09:44:24;;;;;;;17.87;7.53;;;9.50;99.90;;;;;;5057278;28;20209;-84
2022/11/05 09:46:55;;;;;;;16.47;7.77;;;9.50;99.90;;;;;;5057561;28;20482;-84
2022/11/05 09:49:27;;;;;;;16.43;8.03;;;9.50;99.90;;;;;;5056803;28;20207;-83
2022/11/05 09:51:57;;;;;;;14.30;7.73;;;9.50;99.90;;;;;;5056816;28;20214;-84
2022/11/05 09:54:28;;;;;;;16.00;7.70;;;9.50;99.90;;;;;;5056326;28;20202;-84
2022/11/05 09:56:55;;;;;;;20.23;8.43;;;9.90;99.90;;;;;;5056017;28;20207;-83
2022/11/05 09:59:28;;;;;;;18.47;8.17;;;10.30;99.90;;;;;;5057383;28;20218;-84
2022/11/05 10:02:13;;;;;;;17.37;8.13;;;10.60;99.90;;;;;;5058577;28;20302;-83
2022/11/05 10:04:41;;;;;;;20.70;8.90;;;10.80;99.90;;;;;;5057312;28;20189;-84
2022/11/05 10:07:13;;;;;;;17.63;9.03;;;11.00;99.90;;;;;;5071737;28;20225;-83
2022/11/05 10:09:45;;;;;;;16.60;8.83;;;10.90;99.90;;;;;;5074690;28;20222;-84
2022/11/05 10:12:16;;;;;;;20.10;8.13;;;11.10;99.90;;;;;;5076202;28;20202;-84
2022/11/05 10:14:48;;;;;;;19.37;8.77;;;11.30;99.90;;;;;;5070574;28;20210;-83
2022/11/05 10:17:23;;;;;;;17.17;8.83;;;11.40;99.90;;;;;;5058466;28;20255;-84
2022/11/05 10:19:54;;;;;;;19.67;8.77;;;11.20;99.90;;;;;;5057461;28;20222;-83
2022/11/05 10:22:21;;;;;;;17.63;8.70;;;11.30;99.90;;;;;;5075825;28;20210;-83
2022/11/05 10:24:50;;;;;;;20.00;9.17;;;11.40;99.90;;;;;;5078728;28;20206;-83
2022/11/05 10:27:22;;;;;;;16.87;7.90;;;11.50;99.90;;;;;;5072354;28;20240;-85
2022/11/05 10:29:50;;;;;;;17.07;8.10;;;11.50;99.90;;;;;;5062493;28;20222;-82
2022/11/05 10:32:26;;;;;;;13.07;7.00;;;11.80;99.90;;;;;;5067720;28;20209;-83
2022/11/05 10:34:56;;;;;;;20.40;8.27;;;11.90;99.90;;;;;;5071139;28;20210;-83
2022/11/05 10:37:24;;;;;;;17.83;7.93;;;11.70;99.90;;;;;;5070998;28;20208;-82
2022/11/05 10:39:51;;;;;;;15.30;8.27;;;11.90;99.90;;;;;;5069323;28;20226;-83
2022/11/05 10:42:46;;;;;;;18.03;7.87;;;11.90;99.90;;;;;;5069495;28;20203;-83
2022/11/05 10:45:23;;;;;;;19.23;9.57;;;12.00;99.90;;;;;;5070977;28;20183;-83
2022/11/05 10:48:05;;;;;;;17.73;9.07;;;12.10;99.90;;;;;;5077543;28;20290;-82
2022/11/05 10:50:32;;;;;;;15.07;8.20;;;12.30;99.90;;;;;;5066069;28;20235;-83
2022/11/05 10:53:01;;;;;;;18.50;9.07;;;12.40;99.90;;;;;;5057408;28;20203;-82
2022/11/05 10:55:30;;;;;;;17.77;9.17;;;12.70;99.90;;;;;;5056657;28;20211;-83
2022/11/05 10:58:09;;;;;;;15.83;8.60;;;12.50;1.00;;;;;;5055944;28;20206;-83
2022/11/05 11:00:37;;;;;;;15.43;8.57;;;12.60;1.00;;;;;;5056867;28;20231;-82
2022/11/05 11:03:25;;;;;;;16.17;7.43;;;12.80;1.00;;;;;;5058706;28;20294;-83
2022/11/05 11:05:58;;;;;;;14.53;6.90;;;12.70;1.00;;;;;;5075073;28;20199;-83
2022/11/05 11:08:25;;;;;;;14.33;6.60;;;12.60;99.90;;;;;;5077040;28;20232;-83
2022/11/05 11:10:57;;;;;;;14.30;7.33;;;12.60;1.00;;;;;;5075828;28;20229;-83
2022/11/05 11:13:25;;;;;;;12.87;6.37;;;12.80;99.90;;;;;;5059358;28;20207;-83
2022/11/05 11:15:54;;;;;;;12.93;6.37;;;12.60;99.90;;;;;;5057135;28;20207;-83
2022/11/05 11:18:28;;;;;;;12.90;6.50;;;12.40;99.90;;;;;;5055526;28;20211;-83
2022/11/05 11:21:06;;;;;;;11.60;5.67;;;12.40;1.00;;;;;;5057649;28;20643;-83
2022/11/05 11:23:38;;;;;;;11.37;5.67;;;12.00;1.00;;;;;;5058541;28;20213;-82
2022/11/05 11:26:05;;;;;;;9.90;5.43;;;12.40;1.00;;;;;;5054272;28;20278;-83
2022/11/05 11:28:34;;;;;;;12.93;5.73;;;12.40;1.00;;;;;;5076065;28;20278;-83
2022/11/05 11:31:06;;;;;;;9.27;5.70;;;11.90;1.00;;;;;;5076609;28;20241;-83
2022/11/05 11:33:34;;;;;;;15.53;5.43;;;12.10;1.00;;;;;;5058440;28;20207;-83
2022/11/05 11:36:01;;;;;;;9.90;5.17;;;12.20;25.00;;;;;;5070602;28;20195;-82
2022/11/05 11:38:30;;;;;;;9.47;5.17;;;12.50;1.00;;;;;;5081241;28;20201;-83
2022/11/05 11:41:05;;;;;;;11.03;5.90;;;12.50;99.90;;;;;;5076831;28;20230;-83
2022/11/05 11:43:35;;;;;;;10.00;4.90;;;13.10;1.00;;;;;;5080996;28;20198;-83
2022/11/05 11:46:04;;;;;;;10.33;5.57;;;12.70;1.00;;;;;;5080457;28;20218;-83
2022/11/05 11:48:35;;;;;;;10.73;5.57;;;13.00;1.00;;;;;;5080640;28;20289;-83
2022/11/05 11:51:17;;;;;;;8.80;4.87;;;12.90;99.90;;;;;;5082755;28;20232;-83
2022/11/05 11:53:46;;;;;;;9.13;4.90;;;13.10;1.00;;;;;;5082945;28;20702;-83
2022/11/05 11:56:16;;;;;;;9.93;4.77;;;13.00;99.90;;;;;;5081295;28;20205;-83
2022/11/05 11:58:46;;;;;;;7.00;4.53;;;14.30;99.90;;;;;;5060351;28;20202;-83
2022/11/05 12:01:39;;;;;;;10.83;4.53;;;15.20;1.00;;;;;;5077076;28;20222;-83
2022/11/05 12:04:28;;;;;;;8.53;5.10;;;16.00;99.90;;;;;;5079765;28;20207;-83
2022/11/05 12:07:05;;;;;;;8.17;4.90;;;15.60;99.90;;;;;;5081627;28;20226;-83
2022/11/05 12:09:49;;;;;;;8.03;4.80;;;15.30;99.90;;;;;;5060765;28;20642;-83
2022/11/05 12:12:22;;;;;;;7.53;5.00;;;15.30;99.90;;;;;;5065421;28;20214;-82
2022/11/05 12:14:55;;;;;;;8.10;5.40;;;14.60;1.00;;;;;;5082556;28;20299;-83
2022/11/05 12:17:37;;;;;;;8.17;5.63;;;15.40;99.90;;;;;;5078418;28;20198;-82
2022/11/05 12:20:21;;;;;;;10.93;6.17;;;15.70;99.90;;;;;;5060476;28;20225;-83
2022/11/05 12:23:08;;;;;;;11.33;6.50;;;16.10;1.00;;;;;;5060388;28;20214;-83
2022/11/05 12:25:42;;;;;;;11.80;6.97;;;16.40;1.00;;;;;;5078575;28;20317;-83
2022/11/05 12:28:28;;;;;;;10.87;6.13;;;16.00;1.00;;;;;;5078083;28;20791;-83
2022/11/05 12:31:08;;;;;;;8.00;5.60;;;15.60;1.00;;;;;;5073386;28;20282;-84
2022/11/05 12:33:44;;;;;;;10.27;5.70;;;15.10;1.00;;;;;;5070145;28;20655;-84
2022/11/05 12:36:20;;;;;;;11.13;6.00;;;14.20;1.00;;;;;;5069442;28;20224;-84
2022/11/05 12:38:59;;;;;;;6.83;4.57;;;14.50;1.00;;;;;;5081411;28;20198;-84
2022/11/05 12:41:30;;;;;;;9.53;4.50;;;14.10;1.00;;;;;;5062206;28;20222;-83
2022/11/05 12:44:13;;;;;;;7.90;4.53;;;14.50;1.00;;;;;;5060282;28;20210;-84
2022/11/05 12:46:49;;;;;;;9.57;4.50;;;14.90;1.00;;;;;;5080247;28;20236;-83
2022/11/05 12:49:30;;;;;;;8.40;4.60;;;14.40;1.00;;;;;;5079304;28;20212;-83
2022/11/05 12:52:13;;;;;;;8.67;4.63;;;15.50;1.00;;;;;;5066937;28;20206;-83
2022/11/05 12:54:58;;;;;;;5.77;4.20;;;15.60;1.00;;;;;;5072095;28;20556;-84
2022/11/05 12:57:26;;;;;;;7.77;4.73;;;15.40;99.90;;;;;;5064574;28;20206;-84
2022/11/05 13:00:02;;;;;;;8.20;4.53;;;15.70;99.90;;;;;;5064283;28;20286;-82
2022/11/05 13:02:34;;;;;;;6.23;4.57;;;15.50;99.90;;;;;;5067648;28;20588;-84
2022/11/05 13:05:12;;;;;;;6.03;4.83;;;15.70;99.90;;;;;;5076892;28;20203;-83
2022/11/05 13:07:44;;;;;;;8.27;4.80;;;15.60;99.90;;;;;;5077980;28;20238;-83
2022/11/05 13:10:23;;;;;;;8.50;4.83;;;15.40;99.90;;;;;;5087396;28;20262;-83
2022/11/05 13:13:00;;;;;;;8.60;4.27;;;15.80;99.90;;;;;;5079343;28;20194;-82
2022/11/05 13:15:32;;;;;;;6.07;4.60;;;15.20;99.90;;;;;;5081632;28;20214;-81
2022/11/05 13:18:03;;;;;;;5.93;4.10;;;14.20;99.90;;;;;;5066175;28;20282;-83
2022/11/05 13:20:35;;;;;;;20.60;11.43;;;13.80;1.00;;;;;;5074721;28;20227;-82
2022/11/05 13:23:12;;;;;;;7.93;4.37;;;13.70;1.00;;;;;;5077959;28;20183;-83
2022/11/05 13:25:44;;;;;;;5.93;4.10;;;13.70;1.00;;;;;;5073634;28;20206;-83
2022/11/05 13:28:32;;;;;;;7.57;4.20;;;13.60;1.00;;;;;;5084003;28;20252;-83
2022/11/05 13:31:07;;;;;;;6.63;4.10;;;13.30;1.00;;;;;;5077871;28;20206;-83
2022/11/05 13:33:40;;;;;;;10.30;4.37;;;12.90;1.00;;;;;;5083164;28;20214;-82
2022/11/05 13:39:08;;;;;;;5.63;4.43;;;12.20;99.90;;;;;;5076880;28;20237;-83
2022/11/05 13:41:53;;;;;;;10.30;5.03;;;12.00;1.00;;;;;;5080545;28;20239;-83
2022/11/05 13:44:56;;;;;;;9.50;4.73;;;12.00;1.00;;;;;;5083822;28;20232;-82